Time;durP1;ratioP1;P1;durP2;ratioP2;P2;SDS_P1;SDS_P2;PMS_P1;PMS_P2;Temp;Humidity;BMP_temperature;BMP_pressure;BME280_temperature;BME280_humidity;BME280_pressure;Samples;Min_cycle;Max_cycle;Signal;HPM_P1;HPM_P2
2023/03/11 00:01:47;;;;;;;5.88;3.50;;;;;;;-1.00;100.00;96682.06;4160125;28;20124;-75
2023/03/11 00:03:48;;;;;;;5.85;3.35;;;;;;;-0.99;100.00;96700.72;4159774;28;20045;-75
2023/03/11 00:05:48;;;;;;;5.05;3.38;;;;;;;-0.95;100.00;96704.31;4160445;28;20048;-75
2023/03/11 00:07:49;;;;;;;5.13;3.00;;;;;;;-0.99;100.00;96718.94;4160154;28;20045;-75
2023/03/11 00:09:49;;;;;;;5.35;3.05;;;;;;;-0.97;100.00;96703.88;4161077;28;20088;-75
2023/03/11 00:11:49;;;;;;;4.90;2.95;;;;;;;-0.97;100.00;96722.09;4159228;28;20053;-75
2023/03/11 00:13:50;;;;;;;6.65;3.40;;;;;;;-0.98;100.00;96724.03;4159418;28;20390;-75
2023/03/11 00:15:56;;;;;;;5.03;2.72;;;;;;;-0.99;100.00;96718.94;4160083;28;20045;-75
2023/03/11 00:17:56;;;;;;;4.90;2.65;;;;;;;-0.93;100.00;96729.19;4159278;28;20128;-75
2023/03/11 00:19:57;;;;;;;4.78;2.95;;;;;;;-0.94;100.00;96754.75;4160233;28;20072;-75
2023/03/11 00:21:57;;;;;;;5.28;3.15;;;;;;;-0.94;100.00;96746.63;4160569;28;20054;-75
2023/03/11 00:24:00;;;;;;;4.32;3.13;;;;;;;-0.96;100.00;96764.41;4159534;28;20424;-75
2023/03/11 00:26:01;;;;;;;4.93;2.97;;;;;;;-0.93;100.00;96756.34;4159779;28;20090;-75
2023/03/11 00:28:03;;;;;;;5.85;3.38;;;;;;;-0.98;100.00;96763.97;4160135;28;20184;-75
2023/03/11 00:30:04;;;;;;;4.68;3.22;;;;;;;-0.96;100.00;96770.63;4160231;28;20041;-75
2023/03/11 00:32:05;;;;;;;4.15;2.70;;;;;;;-0.96;100.00;96776.03;4160132;28;20033;-74
2023/03/11 00:34:05;;;;;;;9.68;3.33;;;;;;;-0.94;100.00;96783.84;4159277;28;20033;-75
2023/03/11 00:36:06;;;;;;;4.38;2.78;;;;;;;-0.94;100.00;96787.34;4160260;28;20164;-75
2023/03/11 00:38:10;;;;;;;3.83;2.50;;;;;;;-0.95;100.00;96806.69;4160078;28;20034;-75
2023/03/11 00:40:13;;;;;;;5.60;3.08;;;;;;;-0.95;100.00;96795.84;4159830;28;20036;-75
2023/03/11 00:42:13;;;;;;;4.05;2.60;;;;;;;-0.94;100.00;96800.91;4159165;28;20033;-75
2023/03/11 00:44:14;;;;;;;4.82;2.72;;;;;;;-0.94;100.00;96802.84;4159400;28;20249;-75
2023/03/11 00:46:14;;;;;;;4.22;2.85;;;;;;;-1.00;100.00;96807.72;4159341;28;20041;-75
2023/03/11 00:48:14;;;;;;;4.00;2.83;;;;;;;-0.95;100.00;96823.78;4159177;28;20022;-75
2023/03/11 00:50:19;;;;;;;4.82;2.60;;;;;;;-0.99;100.00;96832.97;4160383;28;20053;-75
2023/03/11 00:52:19;;;;;;;4.75;3.05;;;;;;;-0.96;100.00;96833.06;4159958;28;20282;-74
2023/03/11 00:54:19;;;;;;;4.35;2.60;;;;;;;-0.95;100.00;96847.41;4160005;28;20045;-75
2023/03/11 00:56:20;;;;;;;4.57;2.45;;;;;;;-0.92;100.00;96838.56;4159188;28;20064;-75
2023/03/11 00:58:26;;;;;;;3.22;2.28;;;;;;;-0.89;100.00;96857.69;4160118;28;25647;-75
2023/03/11 01:00:28;;;;;;;4.22;2.78;;;;;;;-0.89;100.00;96859.63;4159794;28;20045;-75
2023/03/11 01:02:28;;;;;;;4.78;2.55;;;;;;;-0.86;100.00;96869.78;4159188;28;20034;-75
2023/03/11 01:04:29;;;;;;;5.53;2.85;;;;;;;-0.83;100.00;96869.09;4159194;28;20190;-75
2023/03/11 01:06:29;;;;;;;4.97;2.95;;;;;;;-0.83;100.00;96868.31;4160055;28;20373;-75
2023/03/11 01:08:30;;;;;;;5.88;2.63;;;;;;;-0.79;100.00;96880.09;4159448;28;20466;-75
2023/03/11 01:10:31;;;;;;;3.60;2.53;;;;;;;-0.79;100.00;96882.81;4159501;28;20046;-75
2023/03/11 01:12:32;;;;;;;3.15;2.03;;;;;;;-0.67;100.00;96888.97;4158904;28;20049;-75
2023/03/11 01:14:32;;;;;;;4.22;2.40;;;;;;;-0.71;100.00;96893.53;4159683;28;20111;-74
2023/03/11 01:16:33;;;;;;;4.43;2.35;;;;;;;-0.74;100.00;96902.38;4159250;28;20060;-75
2023/03/11 01:18:33;;;;;;;3.25;2.42;;;;;;;-0.74;100.00;96920.59;4159387;28;20128;-75
2023/03/11 01:20:35;;;;;;;3.45;2.20;;;;;;;-0.73;100.00;96917.53;4159479;28;20065;-75
2023/03/11 01:22:35;;;;;;;3.35;2.20;;;;;;;-0.73;100.00;96917.53;4159387;28;20037;-75
2023/03/11 01:24:36;;;;;;;3.33;2.25;;;;;;;-0.75;100.00;96913.56;4159090;28;20077;-74
2023/03/11 01:26:36;;;;;;;3.30;2.47;;;;;;;-0.77;100.00;96927.47;4159133;28;20060;-74
2023/03/11 01:28:37;;;;;;;3.05;1.90;;;;;;;-0.73;100.00;96928.41;4159630;28;20049;-74
2023/03/11 01:30:39;;;;;;;3.25;2.03;;;;;;;-0.70;100.00;96943.22;4159193;28;20045;-74
2023/03/11 01:32:39;;;;;;;4.40;2.65;;;;;;;-0.75;100.00;96946.94;4158258;28;20053;-74
2023/03/11 01:34:40;;;;;;;3.20;2.28;;;;;;;-0.76;100.00;96948.06;4159279;28;20554;-74
2023/03/11 01:36:40;;;;;;;3.00;2.20;;;;;;;-0.76;100.00;96939.94;4159817;28;20171;-75
2023/03/11 01:38:40;;;;;;;3.17;1.83;;;;;;;-0.76;100.00;96944.56;4158707;28;20053;-74
2023/03/11 01:40:47;;;;;;;5.03;2.05;;;;;;;-0.81;100.00;96951.03;4159028;28;20321;-74
2023/03/11 01:42:47;;;;;;;5.65;2.97;;;;;;;-0.74;100.00;96961.34;4158654;28;20054;-74
2023/03/11 01:44:48;;;;;;;4.72;2.70;;;;;;;-0.78;100.00;96971.28;4159330;28;20045;-74
2023/03/11 01:46:51;;;;;;;4.03;2.85;;;;;;;-0.77;100.00;96959.28;4158607;28;20099;-74
2023/03/11 01:48:54;;;;;;;5.35;2.97;;;;;;;-0.82;100.00;96973.91;4158847;28;20046;-74
2023/03/11 01:50:55;;;;;;;3.97;2.33;;;;;;;-0.78;100.00;96980.22;4158817;28;20054;-74
2023/03/11 01:52:56;;;;;;;3.75;2.47;;;;;;;-0.77;100.00;96981.00;4158440;28;20103;-74
2023/03/11 01:54:56;;;;;;;3.83;2.40;;;;;;;-0.77;100.00;96967.44;4158836;28;20439;-74
2023/03/11 01:56:58;;;;;;;4.05;2.50;;;;;;;-0.80;100.00;96974.34;4159141;28;20044;-74
2023/03/11 01:58:59;;;;;;;3.35;2.22;;;;;;;-0.71;100.00;96996.75;4158670;28;20140;-74
2023/03/11 02:01:01;;;;;;;3.85;1.83;;;;;;;-0.74;100.00;96997.44;4158241;28;20064;-74
2023/03/11 02:03:09;;;;;;;2.45;1.70;;;;;;;-0.74;100.00;97019.16;4158168;28;20381;-74
2023/03/11 02:05:10;;;;;;;4.50;2.53;;;;;;;-0.71;100.00;97004.88;4158601;28;20116;-75
2023/03/11 02:07:12;;;;;;;1.65;1.40;;;;;;;-0.79;100.00;97013.16;4158604;28;20068;-74
2023/03/11 02:09:13;;;;;;;2.85;1.88;;;;;;;-0.77;100.00;97024.47;4157893;28;20256;-74
2023/03/11 02:11:19;;;;;;;2.47;1.67;;;;;;;-0.78;100.00;97025.59;4158825;28;20114;-75
2023/03/11 02:13:20;;;;;;;2.95;1.60;;;;;;;-0.80;100.00;97022.44;4158032;28;20411;-74
2023/03/11 02:15:21;;;;;;;1.95;1.45;;;;;;;-0.86;100.00;97030.78;4157964;28;20100;-74
2023/03/11 02:17:21;;;;;;;2.20;1.65;;;;;;;-0.80;100.00;97031.38;4158447;28;20284;-74
2023/03/11 02:19:51;;;;;;;3.15;1.70;;;;;;;-0.81;100.00;97034.44;4158748;28;20037;-74
2023/03/11 02:21:52;;;;;;;2.80;1.35;;;;;;;-0.82;100.00;97043.72;4158457;28;20046;-74
2023/03/11 02:24:18;;;;;;;2.75;1.95;;;;;;;-0.79;100.00;97043.03;4157798;28;20057;-74
2023/03/11 02:26:24;;;;;;;1.67;1.50;;;;;;;-0.86;100.00;97035.44;4158444;28;20049;-74
2023/03/11 02:28:27;;;;;;;1.77;1.33;;;;;;;-0.87;100.00;97042.78;4158648;28;20045;-74
2023/03/11 02:30:28;;;;;;;1.88;1.55;;;;;;;-0.77;100.00;97063.28;4158221;28;20052;-74
2023/03/11 02:32:28;;;;;;;3.60;1.88;;;;;;;-0.87;100.00;97050.13;4157858;28;20038;-74
2023/03/11 02:34:34;;;;;;;2.28;1.40;;;;;;;-0.80;100.00;97055.03;4158030;28;20390;-74
2023/03/11 02:36:37;;;;;;;2.08;1.25;;;;;;;-0.79;100.00;97060.09;4158018;28;20116;-75
2023/03/11 02:38:38;;;;;;;2.00;1.40;;;;;;;-0.76;100.00;97064.84;4158361;28;20042;-74
2023/03/11 02:40:42;;;;;;;3.22;1.67;;;;;;;-0.83;100.00;97067.31;4158011;28;20539;-74
2023/03/11 02:42:43;;;;;;;2.65;1.55;;;;;;;-0.85;100.00;97064.16;4157223;28;20397;-74
2023/03/11 02:44:47;;;;;;;2.20;1.52;;;;;;;-0.80;100.00;97074.03;4158088;28;20076;-74
2023/03/11 02:46:47;;;;;;;2.78;1.52;;;;;;;-0.80;100.00;97084.88;4157996;28;20045;-74
2023/03/11 02:48:47;;;;;;;1.95;1.30;;;;;;;-0.89;100.00;97076.84;4158065;28;20046;-75
2023/03/11 02:50:48;;;;;;;1.98;1.35;;;;;;;-0.91;100.00;97084.50;4157850;28;20168;-74
2023/03/11 02:52:48;;;;;;;1.95;1.55;;;;;;;-0.95;100.00;97080.91;4157486;28;20563;-74
2023/03/11 02:54:49;;;;;;;2.20;1.42;;;;;;;-0.96;100.00;97085.53;4158000;28;20045;-74
2023/03/11 02:56:49;;;;;;;1.60;1.30;;;;;;;-0.90;100.00;97077.97;4157945;28;20501;-74
2023/03/11 02:58:50;;;;;;;3.28;1.90;;;;;;;-0.89;100.00;97093.13;4157913;28;20065;-74
2023/03/11 03:00:50;;;;;;;3.03;1.70;;;;;;;-0.87;100.00;97091.66;4157810;28;20053;-74
2023/03/11 03:02:51;;;;;;;2.10;1.50;;;;;;;-0.89;100.00;97112.16;4157207;28;20055;-74
2023/03/11 03:04:51;;;;;;;2.70;1.85;;;;;;;-0.91;100.00;97114.38;4158127;28;20045;-74
2023/03/11 03:06:51;;;;;;;2.97;1.80;;;;;;;-0.97;100.00;97118.47;4158074;28;20048;-74
2023/03/11 03:08:52;;;;;;;2.38;1.77;;;;;;;-0.90;100.00;97126.84;4157585;28;20057;-74
2023/03/11 03:10:52;;;;;;;2.78;1.60;;;;;;;-0.93;100.00;97138.38;4157665;28;20499;-74
2023/03/11 03:12:52;;;;;;;3.25;1.92;;;;;;;-1.03;100.00;97131.44;4157211;28;20584;-74
2023/03/11 03:14:53;;;;;;;2.70;1.95;;;;;;;-1.03;100.00;97136.88;4157484;28;20399;-74
2023/03/11 03:16:53;;;;;;;3.20;1.70;;;;;;;-1.05;100.00;97138.34;4157801;28;20431;-74
2023/03/11 03:18:53;;;;;;;2.47;1.67;;;;;;;-1.04;100.00;97148.06;4158241;28;20041;-74
2023/03/11 03:20:54;;;;;;;3.35;1.83;;;;;;;-1.06;100.00;97140.28;4157704;28;20049;-74
2023/03/11 03:22:54;;;;;;;3.15;1.70;;;;;;;-0.99;100.00;97153.31;4157153;28;20045;-74
2023/03/11 03:24:54;;;;;;;3.05;1.70;;;;;;;-1.02;100.00;97153.97;4157687;28;20386;-74
2023/03/11 03:26:55;;;;;;;2.70;1.55;;;;;;;-1.04;100.00;97157.00;4157727;28;20042;-74
2023/03/11 03:28:55;;;;;;;3.60;1.95;;;;;;;-1.00;100.00;97165.28;4157334;28;20056;-74
2023/03/11 03:31:01;;;;;;;3.10;1.77;;;;;;;-0.96;99.86;97177.84;4157565;28;20056;-74
2023/03/11 03:33:02;;;;;;;1.60;1.33;;;;;;;-0.99;100.00;97167.66;4157778;28;20410;-74
2023/03/11 03:35:04;;;;;;;2.50;1.67;;;;;;;-1.06;100.00;97167.41;4150437;28;20125;-74
2023/03/11 03:37:04;;;;;;;2.10;1.50;;;;;;;-1.03;100.00;97172.16;4149947;28;20069;-74
2023/03/11 03:39:05;;;;;;;3.42;2.30;;;;;;;-1.03;100.00;97180.31;4157571;28;20437;-74
2023/03/11 03:41:06;;;;;;;2.50;1.60;;;;;;;-1.04;100.00;97186.88;4157966;28;20474;-74
2023/03/11 03:43:06;;;;;;;3.67;1.80;;;;;;;-0.97;100.00;97187.13;4156681;28;20402;-75
2023/03/11 03:45:07;;;;;;;3.45;1.65;;;;;;;-0.98;100.00;97206.47;4157264;28;20080;-74
2023/03/11 03:47:07;;;;;;;2.08;1.55;;;;;;;-1.00;100.00;97193.22;4156511;28;20050;-74
2023/03/11 03:49:08;;;;;;;2.78;1.75;;;;;;;-1.04;100.00;97194.22;4157648;28;20052;-74
2023/03/11 03:51:10;;;;;;;3.05;1.92;;;;;;;-1.01;100.00;97194.34;4157725;28;20054;-74
2023/03/11 03:53:10;;;;;;;2.53;2.00;;;;;;;-1.02;100.00;97211.75;4156845;28;20048;-74
2023/03/11 03:55:11;;;;;;;3.28;1.95;;;;;;;-1.07;100.00;97203.03;4157725;28;20041;-75
2023/03/11 03:57:11;;;;;;;2.92;1.80;;;;;;;-1.14;100.00;97211.72;4157112;28;20088;-74
2023/03/11 03:59:12;;;;;;;2.22;1.65;;;;;;;-1.10;100.00;97230.84;4157403;28;20370;-74
2023/03/11 04:01:12;;;;;;;3.05;2.10;;;;;;;-1.11;100.00;97227.34;4157566;28;20365;-74
2023/03/11 04:03:12;;;;;;;2.90;1.85;;;;;;;-1.03;100.00;97233.81;4156643;28;20120;-74
2023/03/11 04:05:13;;;;;;;2.10;1.80;;;;;;;-1.05;100.00;97233.38;4157627;28;20050;-74
2023/03/11 04:07:13;;;;;;;2.13;1.60;;;;;;;-1.07;100.00;97230.19;4157367;28;20048;-74
2023/03/11 04:09:14;;;;;;;4.32;1.70;;;;;;;-1.13;100.00;97235.03;4157936;28;20429;-74
2023/03/11 04:11:14;;;;;;;2.92;1.35;;;;;;;-1.16;99.19;97258.19;4156989;28;20544;-74
2023/03/11 04:13:14;;;;;;;2.85;1.60;;;;;;;-1.13;99.78;97243.16;4156116;28;20388;-74
2023/03/11 04:15:16;;;;;;;4.90;1.85;;;;;;;-1.15;98.13;97248.13;4157625;28;20060;-74
2023/03/11 04:17:16;;;;;;;1.95;1.40;;;;;;;-1.16;98.03;97255.47;4157225;28;20432;-74
2023/03/11 04:19:17;;;;;;;2.53;1.60;;;;;;;-1.06;97.88;97267.06;4157642;28;20249;-74
2023/03/11 04:21:17;;;;;;;2.55;1.58;;;;;;;-1.19;100.00;97261.56;4157397;28;20055;-74
2023/03/11 04:23:18;;;;;;;4.03;1.70;;;;;;;-1.20;100.00;97272.75;4156251;28;20049;-74
2023/03/11 04:25:18;;;;;;;2.78;1.92;;;;;;;-1.28;100.00;97266.25;4157407;28;20053;-74
2023/03/11 04:27:18;;;;;;;2.75;1.63;;;;;;;-1.26;100.00;97279.50;4156531;28;20486;-74
2023/03/11 04:29:19;;;;;;;3.05;1.88;;;;;;;-1.26;100.00;97263.22;4157738;28;20071;-74
2023/03/11 04:31:19;;;;;;;2.40;1.60;;;;;;;-1.16;100.00;97281.81;4157320;28;20128;-74
2023/03/11 04:33:19;;;;;;;2.30;1.90;;;;;;;-1.20;100.00;97278.19;4159417;28;20042;-74
2023/03/11 04:35:20;;;;;;;4.10;1.75;;;;;;;-1.19;100.00;97266.19;4160379;28;20056;-74
2023/03/11 04:37:20;;;;;;;5.07;2.03;;;;;;;-1.15;100.00;97284.22;4160476;28;20080;-74
2023/03/11 04:39:21;;;;;;;3.17;1.70;;;;;;;-1.23;100.00;97281.56;4160166;28;20045;-74
2023/03/11 04:41:21;;;;;;;3.72;1.70;;;;;;;-1.21;100.00;97290.16;4159915;28;20049;-74
2023/03/11 04:43:22;;;;;;;2.42;1.60;;;;;;;-1.20;100.00;97291.75;4159210;28;20139;-74
2023/03/11 04:45:22;;;;;;;2.25;1.50;;;;;;;-1.09;99.91;97292.13;4159425;28;20225;-74
2023/03/11 04:47:22;;;;;;;2.88;1.50;;;;;;;-1.21;100.00;97290.97;4159718;28;20143;-74
2023/03/11 04:49:23;;;;;;;2.20;1.45;;;;;;;-1.26;100.00;97287.63;4160614;28;20127;-74
2023/03/11 04:51:24;;;;;;;1.98;1.45;;;;;;;-1.29;100.00;97283.66;4160066;28;20049;-74
2023/03/11 04:53:24;;;;;;;1.92;1.27;;;;;;;-1.25;100.00;97289.22;4159003;28;20049;-74
2023/03/11 04:55:25;;;;;;;2.33;1.55;;;;;;;-1.32;100.00;97294.41;4159608;28;20134;-74
2023/03/11 04:57:25;;;;;;;1.30;1.20;;;;;;;-1.27;100.00;97300.41;4160120;28;20107;-74
2023/03/11 04:59:25;;;;;;;2.20;1.35;;;;;;;-1.26;100.00;97290.34;4160002;28;20091;-75
2023/03/11 05:01:26;;;;;;;1.98;1.40;;;;;;;-1.25;100.00;97298.16;4159340;28;20084;-74
2023/03/11 05:03:26;;;;;;;1.75;1.20;;;;;;;-1.31;100.00;97299.50;4159229;28;20367;-74
2023/03/11 05:05:27;;;;;;;2.67;1.30;;;;;;;-1.34;100.00;97310.97;4159659;28;20053;-74
2023/03/11 05:07:27;;;;;;;1.95;1.25;;;;;;;-1.29;100.00;97299.94;4159849;28;20381;-74
2023/03/11 05:09:27;;;;;;;2.63;1.30;;;;;;;-1.26;100.00;97303.91;4159834;28;20073;-74
2023/03/11 05:11:28;;;;;;;2.65;1.92;;;;;;;-1.31;100.00;97307.63;4159099;28;20081;-74
2023/03/11 05:13:29;;;;;;;3.88;1.35;;;;;;;-1.34;100.00;97308.28;4158744;28;20042;-74
2023/03/11 05:15:30;;;;;;;4.50;1.77;;;;;;;-1.31;100.00;97312.25;4159779;28;20048;-74
2023/03/11 05:17:30;;;;;;;1.63;1.20;;;;;;;-1.32;100.00;97310.69;4159197;28;20073;-74
2023/03/11 05:19:31;;;;;;;2.58;1.58;;;;;;;-1.36;100.00;97328.72;4159901;28;20030;-74
2023/03/11 05:21:31;;;;;;;3.50;1.40;;;;;;;-1.23;100.00;97327.69;4159698;28;20038;-74
2023/03/11 05:23:31;;;;;;;2.22;1.40;;;;;;;-1.23;100.00;97330.41;4158612;28;20414;-74
2023/03/11 05:25:32;;;;;;;5.68;1.30;;;;;;;-1.32;100.00;97326.97;4158720;28;20061;-74
2023/03/11 05:27:32;;;;;;;1.73;1.30;;;;;;;-1.27;100.00;97329.47;4159224;28;20429;-74
2023/03/11 05:29:32;;;;;;;1.50;1.27;;;;;;;-1.33;100.00;97334.28;4159778;28;20046;-74
2023/03/11 05:31:33;;;;;;;3.42;1.50;;;;;;;-1.34;100.00;97340.84;4159453;28;20076;-74
2023/03/11 05:33:34;;;;;;;2.90;1.67;;;;;;;-1.43;100.00;97346.31;4158445;28;20085;-74
2023/03/11 05:35:35;;;;;;;4.53;1.85;;;;;;;-1.43;100.00;97353.66;4159458;28;20041;-74
2023/03/11 05:37:37;;;;;;;2.42;1.70;;;;;;;-1.42;100.00;97353.31;4159037;28;20516;-74
2023/03/11 05:39:38;;;;;;;3.60;1.70;;;;;;;-1.39;100.00;97351.09;4158681;28;20145;-74
2023/03/11 05:41:39;;;;;;;2.83;1.50;;;;;;;-1.38;100.00;97350.75;4158858;28;20743;-74
2023/03/11 05:43:39;;;;;;;1.90;1.30;;;;;;;-1.27;100.00;97349.25;4158301;28;20045;-74
2023/03/11 05:45:39;;;;;;;4.60;1.85;;;;;;;-1.35;100.00;97349.31;4159448;28;20049;-74
2023/03/11 05:47:41;;;;;;;1.83;1.30;;;;;;;-1.31;100.00;97348.34;4158008;28;20041;-74
2023/03/11 05:49:41;;;;;;;2.38;1.40;;;;;;;-1.31;100.00;97342.13;4158792;28;20053;-74
2023/03/11 05:51:41;;;;;;;3.90;1.55;;;;;;;-1.26;100.00;97345.41;4158782;28;20076;-74
2023/03/11 05:53:47;;;;;;;3.50;1.60;;;;;;;-1.36;100.00;97347.72;4158107;28;20386;-74
2023/03/11 05:55:58;;;;;;;2.15;1.48;;;;;;;-1.41;100.00;97343.25;4158802;28;20100;-74
2023/03/11 05:57:58;;;;;;;3.05;1.63;;;;;;;-1.40;100.00;97354.94;4158658;28;20053;-74
2023/03/11 05:59:58;;;;;;;2.20;1.70;;;;;;;-1.48;100.00;97345.72;4158859;28;20520;-74
2023/03/11 06:01:59;;;;;;;2.10;1.50;;;;;;;-1.43;100.00;97359.88;4159100;28;20433;-74
2023/03/11 06:03:59;;;;;;;2.47;1.52;;;;;;;-1.44;100.00;97361.00;4157894;28;20042;-74
2023/03/11 06:05:59;;;;;;;2.70;1.42;;;;;;;-1.38;100.00;97366.25;4158392;28;20083;-74
2023/03/11 06:08:00;;;;;;;3.78;1.52;;;;;;;-1.36;100.00;97364.78;4158791;28;20524;-74
2023/03/11 06:10:01;;;;;;;3.53;2.03;;;;;;;-1.38;100.00;97372.47;4158878;28;20058;-74
2023/03/11 06:12:03;;;;;;;2.27;1.70;;;;;;;-1.35;100.00;97368.31;4158153;28;20475;-74
2023/03/11 06:14:03;;;;;;;3.15;1.80;;;;;;;-1.33;100.00;97382.31;4157753;28;20112;-74
2023/03/11 06:16:04;;;;;;;4.35;2.28;;;;;;;-1.43;100.00;97395.16;4158494;28;20168;-74
2023/03/11 06:18:04;;;;;;;3.33;2.15;;;;;;;-1.60;100.00;97397.13;4158276;28;20540;-74
2023/03/11 06:20:06;;;;;;;5.25;2.15;;;;;;;-1.64;100.00;97404.34;4158729;28;20385;-74
2023/03/11 06:22:06;;;;;;;7.55;2.20;;;;;;;-1.64;100.00;97405.13;4158764;28;20352;-74
2023/03/11 06:24:06;;;;;;;3.50;2.03;;;;;;;-1.76;100.00;97407.72;4156907;28;20477;-75
2023/03/11 06:26:09;;;;;;;3.67;2.22;;;;;;;-1.82;100.00;97411.72;4158669;28;20432;-75
2023/03/11 06:28:09;;;;;;;4.47;2.40;;;;;;;-1.93;100.00;97424.03;4155459;28;20030;-75
2023/03/11 06:30:10;;;;;;;5.28;2.25;;;;;;;-1.90;100.00;97416.06;4057174;28;20442;-75
2023/03/11 06:32:11;;;;;;;3.70;2.20;;;;;;;-1.89;100.00;97417.66;4157186;28;20110;-75
2023/03/11 06:34:11;;;;;;;3.45;2.10;;;;;;;-1.88;100.00;97418.44;4156600;28;20033;-75
2023/03/11 06:36:13;;;;;;;4.93;2.10;;;;;;;-1.89;100.00;97414.16;4158401;28;20041;-75
2023/03/11 06:38:14;;;;;;;7.15;2.25;;;;;;;-1.87;100.00;97417.31;4157305;28;20048;-75
2023/03/11 06:40:14;;;;;;;3.58;2.25;;;;;;;-1.81;100.00;97424.97;4157951;28;20040;-74
2023/03/11 06:42:15;;;;;;;4.32;2.20;;;;;;;-1.73;100.00;97426.06;4158327;28;20377;-75
2023/03/11 06:44:15;;;;;;;2.97;2.17;;;;;;;-1.70;100.00;97428.91;4157473;28;20047;-75
2023/03/11 06:46:18;;;;;;;4.38;2.42;;;;;;;-1.72;100.00;97439.31;4157893;28;20041;-75
2023/03/11 06:48:18;;;;;;;7.25;2.80;;;;;;;-1.68;100.00;97436.72;4157352;28;20038;-75
2023/03/11 06:50:19;;;;;;;5.43;2.53;;;;;;;-1.61;100.00;97444.38;4158079;28;20046;-75
2023/03/11 06:52:19;;;;;;;5.03;2.60;;;;;;;-1.61;100.00;97447.09;4157777;28;20053;-75
2023/03/11 06:54:19;;;;;;;4.05;2.35;;;;;;;-1.55;100.00;97456.66;4156584;28;20033;-75
2023/03/11 06:56:22;;;;;;;3.05;2.10;;;;;;;-1.52;100.00;97464.91;4157483;28;20029;-75
2023/03/11 06:58:22;;;;;;;4.90;2.28;;;;;;;-1.47;100.00;97458.53;4158021;28;20049;-75
2023/03/11 07:00:22;;;;;;;4.25;2.17;;;;;;;-1.49;100.00;97458.88;4157849;28;20045;-75
2023/03/11 07:02:23;;;;;;;3.22;2.22;;;;;;;-1.45;100.00;97467.16;4155657;28;20048;-75
2023/03/11 07:04:23;;;;;;;4.07;2.38;;;;;;;-1.38;100.00;97475.59;4157902;28;20332;-75
2023/03/11 07:06:26;;;;;;;4.80;2.00;;;;;;;-1.38;100.00;97478.28;4157201;28;20104;-74
2023/03/11 07:08:26;;;;;;;2.58;1.75;;;;;;;-1.45;100.00;97478.78;4157920;28;20087;-75
2023/03/11 07:10:26;;;;;;;5.57;2.58;;;;;;;-1.44;100.00;97469.53;4157553;28;20049;-74
2023/03/11 07:12:27;;;;;;;3.90;2.28;;;;;;;-1.30;100.00;97473.97;4157427;28;20060;-74
2023/03/11 07:14:27;;;;;;;5.63;2.58;;;;;;;-1.35;100.00;97476.84;4157386;28;20116;-75
2023/03/11 07:16:29;;;;;;;6.82;2.33;;;;;;;-1.29;100.00;97491.84;4158204;28;20040;-74
2023/03/11 07:18:29;;;;;;;6.07;2.70;;;;;;;-1.33;100.00;97496.31;4157989;28;20330;-75
2023/03/11 07:20:30;;;;;;;6.85;4.22;;;;;;;-1.36;100.00;97494.25;4157291;28;20045;-75
2023/03/11 07:22:30;;;;;;;6.22;3.25;;;;;;;-1.33;100.00;97507.94;4156887;28;20041;-75
2023/03/11 07:24:30;;;;;;;5.30;2.88;;;;;;;-1.35;100.00;97504.78;4157327;28;20065;-75
2023/03/11 07:26:32;;;;;;;5.55;3.10;;;;;;;-1.34;100.00;97516.41;4157809;28;20466;-75
2023/03/11 07:28:33;;;;;;;6.22;3.00;;;;;;;-1.34;100.00;97522.63;4157423;28;20115;-75
2023/03/11 07:30:33;;;;;;;4.38;2.67;;;;;;;-1.31;100.00;97530.16;4157469;28;20046;-75
2023/03/11 07:32:34;;;;;;;6.20;2.97;;;;;;;-1.31;100.00;97537.50;4156910;28;20065;-75
2023/03/11 07:34:34;;;;;;;8.05;3.67;;;;;;;-1.29;100.00;97533.34;4157584;28;20099;-75
2023/03/11 07:36:35;;;;;;;4.50;2.95;;;;;;;-1.26;100.00;97529.16;4157707;28;20370;-75
2023/03/11 07:38:35;;;;;;;6.93;3.22;;;;;;;-1.21;100.00;97523.56;4157621;28;20041;-74
2023/03/11 07:40:36;;;;;;;5.35;3.25;;;;;;;-1.04;100.00;97528.16;4157895;28;20045;-75
2023/03/11 07:42:36;;;;;;;4.43;2.50;;;;;;;-0.96;100.00;97524.59;4156874;28;20045;-75
2023/03/11 07:44:36;;;;;;;4.53;2.90;;;;;;;-0.94;100.00;97530.50;4157376;28;20474;-74
2023/03/11 07:46:37;;;;;;;4.93;2.75;;;;;;;-0.92;100.00;97531.75;4158341;28;20401;-75
2023/03/11 07:48:38;;;;;;;3.90;2.30;;;;;;;-0.78;100.00;97536.19;4157342;28;20030;-75
2023/03/11 07:50:39;;;;;;;6.73;3.10;;;;;;;-0.70;100.00;97532.63;4157149;28;20045;-74
2023/03/11 07:52:39;;;;;;;6.28;2.40;;;;;;;-0.68;100.00;97543.97;4157251;28;20595;-74
2023/03/11 07:54:39;;;;;;;3.38;2.60;;;;;;;-0.64;100.00;97550.34;4157202;28;20042;-74
2023/03/11 07:56:40;;;;;;;3.88;2.25;;;;;;;-0.63;100.00;97555.44;4157854;28;20060;-75
2023/03/11 07:58:41;;;;;;;5.43;2.30;;;;;;;-0.81;100.00;97566.72;4157510;28;20037;-75
2023/03/11 08:00:42;;;;;;;5.97;3.10;;;;;;;-0.81;100.00;97559.38;4157902;28;20037;-75
2023/03/11 08:02:42;;;;;;;4.95;2.72;;;;;;;-0.79;100.00;97562.56;4156131;28;20120;-75
2023/03/11 08:04:42;;;;;;;5.68;2.75;;;;;;;-0.74;100.00;97556.16;4155865;28;20041;-74
2023/03/11 08:06:45;;;;;;;5.78;2.88;;;;;;;-0.74;100.00;97569.72;4158836;28;20056;-74
2023/03/11 08:08:47;;;;;;;4.78;2.40;;;;;;;-0.61;100.00;97555.13;4109399;28;20086;-74
2023/03/11 08:10:47;;;;;;;4.28;2.65;;;;;;;-0.59;100.00;97559.09;4144057;28;20447;-74
2023/03/11 08:12:47;;;;;;;6.07;2.17;;;;;;;-0.61;100.00;97566.78;4143067;28;20085;-74
2023/03/11 08:14:48;;;;;;;3.47;2.40;;;;;;;-0.70;100.00;97573.38;4144705;28;20054;-74
2023/03/11 08:16:48;;;;;;;3.95;2.50;;;;;;;-0.72;100.00;97573.72;4143972;28;20045;-74
2023/03/11 08:18:50;;;;;;;4.57;2.25;;;;;;;-0.77;100.00;97573.09;4144189;28;20080;-74
2023/03/11 08:20:50;;;;;;;6.60;2.63;;;;;;;-0.75;100.00;97578.97;4144357;28;20049;-74
2023/03/11 08:22:51;;;;;;;5.32;2.28;;;;;;;-0.74;100.00;97594.19;4143376;28;20050;-74
2023/03/11 08:24:51;;;;;;;6.38;2.20;;;;;;;-0.60;100.00;97598.25;4143404;28;20056;-74
2023/03/11 08:26:52;;;;;;;3.08;2.05;;;;;;;-0.66;100.00;97602.28;4143652;28;20049;-74
2023/03/11 08:28:54;;;;;;;4.65;2.53;;;;;;;-0.55;100.00;97618.22;4144354;28;20053;-74
2023/03/11 08:30:54;;;;;;;6.63;2.03;;;;;;;-0.47;100.00;97614.69;4145576;28;20390;-74
2023/03/11 08:32:54;;;;;;;3.92;1.77;;;;;;;-0.44;100.00;97616.72;4150772;28;20132;-74
2023/03/11 08:34:55;;;;;;;3.88;2.17;;;;;;;-0.32;100.00;97623.06;4160551;28;20123;-75
2023/03/11 08:36:55;;;;;;;10.52;2.42;;;;;;;-0.34;100.00;97622.59;4191880;28;20115;-74
2023/03/11 08:38:55;;;;;;;3.65;2.17;;;;;;;-0.40;100.00;97623.91;4160395;28;20057;-74
2023/03/11 08:40:56;;;;;;;5.70;2.15;;;;;;;-0.31;100.00;97621.94;4160320;28;20045;-74
2023/03/11 08:42:56;;;;;;;2.70;1.85;;;;;;;-0.42;100.00;97623.41;4159121;28;20099;-74
2023/03/11 08:44:56;;;;;;;3.40;2.47;;;;;;;-0.42;100.00;97620.69;4160137;28;20977;-74
2023/03/11 08:46:57;;;;;;;7.22;3.22;;;;;;;-0.34;100.00;97627.22;4159078;28;20115;-74
2023/03/11 08:48:58;;;;;;;3.88;2.40;;;;;;;-0.29;100.00;97618.91;4160833;28;20136;-74
2023/03/11 08:50:58;;;;;;;4.15;2.10;;;;;;;-0.30;100.00;97636.34;4159824;28;20761;-74
2023/03/11 08:53:01;;;;;;;4.65;2.35;;;;;;;-0.22;100.00;97624.63;4159122;28;20059;-74
2023/03/11 08:55:03;;;;;;;6.18;2.80;;;;;;;-0.23;100.00;97625.75;4159973;28;20445;-74
2023/03/11 08:57:04;;;;;;;5.43;2.17;;;;;;;-0.28;100.00;97647.66;4160389;28;20052;-74
2023/03/11 08:59:04;;;;;;;5.47;3.03;;;;;;;-0.24;100.00;97645.09;4159826;28;20451;-74
2023/03/11 09:01:07;;;;;;;4.47;2.00;;;;;;;-0.20;98.96;97660.44;4160090;28;20310;-74
2023/03/11 09:03:08;;;;;;;5.28;2.65;;;;;;;-0.17;98.98;97653.53;4159102;28;20390;-74
2023/03/11 09:05:09;;;;;;;5.10;2.50;;;;;;;-0.02;99.49;97669.28;4159993;28;20049;-74
2023/03/11 09:07:11;;;;;;;3.88;2.10;;;;;;;0.02;99.68;97669.44;4159992;28;20076;-74
2023/03/11 09:09:12;;;;;;;5.30;2.42;;;;;;;-0.08;100.00;97674.13;4159811;28;20124;-74
2023/03/11 09:11:14;;;;;;;6.38;2.17;;;;;;;0.00;97.59;97664.34;4159287;28;20051;-74
2023/03/11 09:13:14;;;;;;;4.03;2.10;;;;;;;0.06;97.25;97670.38;4158998;28;20133;-74
2023/03/11 09:15:15;;;;;;;3.35;2.03;;;;;;;0.08;96.78;97663.47;4160457;28;20134;-74
2023/03/11 09:17:17;;;;;;;5.05;2.60;;;;;;;0.02;98.43;97661.28;4158844;28;20069;-74
2023/03/11 09:19:18;;;;;;;3.65;2.35;;;;;;;0.09;95.80;97661.56;4159809;28;20451;-74
2023/03/11 09:21:18;;;;;;;4.80;2.40;;;;;;;0.24;94.54;97675.38;4159338;28;20049;-75
2023/03/11 09:23:19;;;;;;;3.10;1.80;;;;;;;0.05;91.73;97664.13;4158620;28;20069;-74
2023/03/11 09:25:19;;;;;;;5.85;2.00;;;;;;;0.19;93.24;97670.13;4159730;28;20052;-74